Time;durP1;ratioP1;P1;durP2;ratioP2;P2;SDS_P1;SDS_P2;PMS_P1;PMS_P2;Temp;Humidity;BMP_temperature;BMP_pressure;BME280_temperature;BME280_humidity;BME280_pressure;Samples;Min_cycle;Max_cycle;Signal;HPM_P1;HPM_P2
2023/03/31 00:02:20;;;;;;;6.50;4.80;;;;;;;-0.34;84.71;99613.91;1776789;81;21778;-83
2023/03/31 00:05:25;;;;;;;7.47;4.50;;;;;;;-0.39;84.93;99616.11;1776838;81;21156;-83
2023/03/31 00:08:34;;;;;;;7.25;4.85;;;;;;;-0.42;85.01;99615.89;1750209;82;21176;-83
2023/03/31 00:11:39;;;;;;;14.87;5.05;;;;;;;-0.50;85.28;99614.30;1755797;81;21209;-83
2023/03/31 00:14:45;;;;;;;8.40;5.25;;;;;;;-0.48;85.42;99615.02;1759156;81;21182;-83
2023/03/31 00:17:51;;;;;;;6.33;4.45;;;;;;;-0.52;85.45;99614.89;1759024;81;21276;-83
2023/03/31 00:20:58;;;;;;;9.68;4.58;;;;;;;-0.56;85.64;99613.45;1759909;79;21237;-84
2023/03/31 00:24:14;;;;;;;7.03;4.75;;;;;;;-0.56;85.60;99608.08;1770298;81;21781;-84
2023/03/31 00:27:20;;;;;;;8.80;5.10;;;;;;;-0.55;85.60;99605.75;1769063;81;21709;-84
2023/03/31 00:30:27;;;;;;;7.62;4.90;;;;;;;-0.51;85.44;99607.22;1769564;81;21195;-84
2023/03/31 00:33:34;;;;;;;6.05;4.47;;;;;;;-0.58;85.49;99601.96;1769678;81;21198;-84
2023/03/31 00:36:55;;;;;;;9.50;5.80;;;;;;;-0.61;85.43;99599.05;1770578;81;21193;-84
2023/03/31 00:39:51;;;;;;;12.37;4.65;;;;;;;-0.75;85.80;99600.64;1771288;81;21171;-84
2023/03/31 00:42:57;;;;;;;9.05;5.20;;;;;;;-0.74;85.79;99602.83;1771408;81;21191;-84
2023/03/31 00:46:07;;;;;;;6.80;4.50;;;;;;;-0.75;85.76;99607.81;1771444;81;21744;-83
2023/03/31 00:49:13;;;;;;;10.15;5.67;;;;;;;-0.75;85.56;99606.47;1770710;81;21154;-83
2023/03/31 00:52:24;;;;;;;8.83;5.28;;;;;;;-0.90;85.89;99605.36;1765720;81;21229;-82
2023/03/31 00:55:44;;;;;;;11.73;4.95;;;;;;;-0.88;86.04;99610.14;1769967;81;21182;-83
2023/03/31 00:58:49;;;;;;;;;;;;;;;-0.92;86.10;99610.01;1774079;81;21891;-83
2023/03/31 01:01:58;;;;;;;11.20;5.37;;;;;;;-0.91;86.06;99613.05;1771028;81;20266;-83
2023/03/31 01:05:06;;;;;;;10.95;6.20;;;;;;;-0.94;86.12;99609.75;1770167;81;21202;-83
2023/03/31 01:08:12;;;;;;;8.90;5.30;;;;;;;-0.96;86.08;99605.85;1771409;81;21221;-83
2023/03/31 01:11:19;;;;;;;9.43;4.97;;;;;;;-0.96;86.11;99605.85;1770930;79;21824;-83
2023/03/31 01:14:26;;;;;;;7.50;4.62;;;;;;;-0.97;86.05;99605.98;1776886;81;21233;-83
2023/03/31 01:17:33;;;;;;;7.60;5.47;;;;;;;-0.98;86.03;99611.84;1776723;81;21182;-83
2023/03/31 01:21:06;;;;;;;8.83;5.55;;;;;;;-1.00;85.99;99614.27;1775440;81;21190;-83
2023/03/31 01:24:46;;;;;;;7.62;5.42;;;;;;;-1.00;85.93;99614.27;1777007;81;21198;-83
2023/03/31 01:28:24;;;;;;;10.48;6.15;;;;;;;-0.97;85.48;99612.69;1776772;78;21750;-83
2023/03/31 01:31:53;;;;;;;9.70;5.17;;;;;;;-1.19;85.92;99608.98;1778003;80;21728;-83
2023/03/31 01:35:21;;;;;;;10.35;6.08;;;;;;;-1.12;85.98;99616.09;1779047;79;21327;-83
2023/03/31 01:38:56;;;;;;;8.35;5.97;;;;;;;-1.17;85.72;99612.42;1779333;80;21216;-84
2023/03/31 01:42:22;;;;;;;9.45;6.12;;;;;;;-1.19;85.97;99616.18;1779776;79;21180;-84
2023/03/31 01:46:02;;;;;;;9.50;5.33;;;;;;;-1.31;86.25;99622.88;1808035;79;21775;-83
2023/03/31 01:49:38;;;;;;;8.53;5.10;;;;;;;-1.38;86.32;99624.79;1806786;79;21295;-83
2023/03/31 01:53:07;;;;;;;8.88;5.70;;;;;;;-1.40;86.53;99625.41;1806465;79;21192;-83
2023/03/31 01:56:24;;;;;;;10.82;5.65;;;;;;;-1.39;86.56;99634.67;1808220;79;21232;-83
2023/03/31 01:59:43;;;;;;;8.40;5.28;;;;;;;-1.46;86.59;99633.41;1807801;79;21176;-83
2023/03/31 02:03:06;;;;;;;7.53;5.10;;;;;;;-1.42;86.61;99634.04;1806832;79;21176;-83
2023/03/31 02:06:23;;;;;;;11.97;5.80;;;;;;;-1.43;86.77;99635.87;1807167;79;21200;-83
2023/03/31 02:09:37;;;;;;;8.45;5.03;;;;;;;-1.64;86.99;99636.17;1808155;79;21180;-82
2023/03/31 02:12:44;;;;;;;10.82;5.15;;;;;;;-1.64;87.22;99643.73;1805762;79;21735;-82
2023/03/31 02:15:56;;;;;;;8.80;5.90;;;;;;;-1.61;87.07;99636.77;1808716;79;21192;-82
2023/03/31 02:19:04;;;;;;;10.95;5.58;;;;;;;-1.67;87.40;99639.92;1808490;79;21313;-82
2023/03/31 02:22:10;;;;;;;9.65;5.47;;;;;;;-1.71;87.60;99639.77;1807518;79;21220;-82
2023/03/31 02:25:19;;;;;;;11.35;4.90;;;;;;;-1.62;87.66;99647.62;1807012;79;21212;-82
2023/03/31 02:28:31;;;;;;;9.40;5.10;;;;;;;-1.53;87.29;99645.59;1808540;79;21177;-83
2023/03/31 02:31:53;;;;;;;8.25;5.33;;;;;;;-1.49;87.20;99655.12;1808101;79;21243;-83
2023/03/31 02:35:00;;;;;;;9.68;5.35;;;;;;;-1.55;87.33;99652.91;1808418;79;21212;-83
2023/03/31 02:38:07;;;;;;;7.72;4.70;;;;;;;-1.53;87.45;99654.98;1807098;79;21806;-83
2023/03/31 02:41:13;;;;;;;7.35;5.40;;;;;;;-1.50;87.21;99649.88;1804731;79;21224;-83
2023/03/31 02:44:20;;;;;;;9.25;4.90;;;;;;;-1.58;87.21;99654.47;1808791;79;21517;-83
2023/03/31 02:47:26;;;;;;;9.85;5.37;;;;;;;-1.66;87.40;99657.72;1808609;79;21168;-83
2023/03/31 02:50:32;;;;;;;12.63;4.97;;;;;;;-1.73;87.50;99652.45;1808228;79;21189;-82
2023/03/31 02:54:16;;;;;;;9.30;5.53;;;;;;;-1.69;87.30;99647.24;1808650;79;21208;-83
2023/03/31 02:58:06;;;;;;;10.45;5.87;;;;;;;-1.83;87.48;99651.44;1807093;79;21188;-83
2023/03/31 03:01:52;;;;;;;11.25;5.75;;;;;;;-1.87;87.33;99650.80;1808302;79;21180;-83
2023/03/31 03:05:27;;;;;;;6.53;4.58;;;;;;;-1.92;87.50;99654.30;1808322;79;21176;-83
2023/03/31 03:09:08;;;;;;;8.45;5.75;;;;;;;-1.95;87.63;99658.55;1807141;79;21703;-84
2023/03/31 03:12:17;;;;;;;8.43;4.92;;;;;;;-1.97;87.84;99657.81;1807596;79;21163;-83
2023/03/31 03:15:37;;;;;;;8.65;5.08;;;;;;;-2.00;87.96;99654.01;1810964;79;21250;-83
2023/03/31 03:18:30;;;;;;;8.10;5.47;;;;;;;-2.01;88.09;99653.64;1814457;79;21212;-83
2023/03/31 03:21:36;;;;;;;7.87;4.47;;;;;;;-1.94;87.91;99653.55;1813120;79;21786;-84
2023/03/31 03:24:42;;;;;;;9.88;5.40;;;;;;;-1.89;87.71;99653.20;1812746;79;21233;-83
2023/03/31 03:27:48;;;;;;;9.38;5.53;;;;;;;-1.89;87.59;99648.70;1814073;79;21501;-83
2023/03/31 03:30:54;;;;;;;9.03;5.15;;;;;;;-1.92;87.80;99655.65;1814141;79;21219;-84
2023/03/31 03:34:02;;;;;;;11.90;5.97;;;;;;;-1.95;88.12;99654.52;1814108;79;21169;-83
2023/03/31 03:37:01;;;;;;;8.77;6.20;;;;;;;-1.97;88.36;99645.75;1812916;79;21240;-83
2023/03/31 03:40:07;;;;;;;10.72;6.10;;;;;;;-1.92;88.51;99652.11;1775650;79;22050;-83
2023/03/31 03:43:12;;;;;;;8.30;5.28;;;;;;;-1.84;88.31;99638.48;1775843;80;21200;-83
2023/03/31 03:46:18;;;;;;;8.48;4.62;;;;;;;-1.76;88.11;99638.42;1777655;80;21201;-83
2023/03/31 03:49:23;;;;;;;8.65;5.50;;;;;;;-1.68;88.04;99637.36;1776386;80;21728;-83
2023/03/31 03:52:29;;;;;;;8.45;5.42;;;;;;;-1.66;88.03;99640.77;1776809;80;21221;-84
2023/03/31 03:55:36;;;;;;;10.40;4.67;;;;;;;-1.67;88.01;99641.75;1739899;82;21739;-83
2023/03/31 03:58:44;;;;;;;9.10;5.17;;;;;;;-1.62;88.25;99642.26;1724770;83;21788;-86
2023/03/31 04:01:49;;;;;;;12.23;5.72;;;;;;;-1.51;88.18;99649.00;1739329;82;21207;-84
2023/03/31 04:04:56;;;;;;;10.43;6.20;;;;;;;-1.36;88.02;99647.86;1740864;82;21207;-84
2023/03/31 04:08:04;;;;;;;13.38;6.10;;;;;;;-1.22;87.88;99653.97;1739552;82;22404;-84
2023/03/31 04:11:09;;;;;;;11.38;6.03;;;;;;;-1.10;87.72;99657.07;1703320;84;21258;-84
2023/03/31 04:14:16;;;;;;;10.85;5.50;;;;;;;-0.95;87.45;99654.53;1718098;83;21253;-84
2023/03/31 04:17:31;;;;;;;10.40;5.80;;;;;;;-0.87;87.06;99657.48;1718912;83;21225;-84
2023/03/31 04:20:33;;;;;;;8.68;5.35;;;;;;;-0.85;87.04;99656.90;1720548;83;21198;-84
2023/03/31 04:23:47;;;;;;;8.70;4.72;;;;;;;-0.75;87.25;99658.37;1732533;82;21243;-84
2023/03/31 04:26:50;;;;;;;14.23;6.62;;;;;;;-0.65;87.16;99665.22;1750103;82;21204;-84
2023/03/31 04:29:57;;;;;;;12.55;5.60;;;;;;;-0.53;86.72;99660.20;1767358;81;21284;-84
2023/03/31 04:33:05;;;;;;;8.85;5.70;;;;;;;-0.45;86.49;99659.61;1741922;82;21252;-84
2023/03/31 04:36:17;;;;;;;14.23;5.83;;;;;;;-0.32;86.24;99658.51;1767865;81;21898;-84
2023/03/31 04:39:29;;;;;;;8.93;5.53;;;;;;;-0.03;85.44;99656.64;1718705;82;21238;-84
2023/03/31 04:42:35;;;;;;;10.90;5.75;;;;;;;0.06;85.25;99656.39;1738686;82;21587;-84
2023/03/31 04:45:41;;;;;;;7.78;4.92;;;;;;;0.28;84.60;99655.45;1738529;80;21163;-84
2023/03/31 04:48:48;;;;;;;7.72;5.28;;;;;;;0.47;83.96;99661.02;1737231;82;21247;-84
2023/03/31 04:51:54;;;;;;;11.05;5.70;;;;;;;0.52;83.82;99661.52;1738531;82;21204;-84
2023/03/31 04:55:01;;;;;;;15.68;5.67;;;;;;;0.59;83.69;99653.27;1737277;82;21287;-84
2023/03/31 04:58:07;;;;;;;9.93;5.70;;;;;;;0.62;83.46;99643.61;1738989;82;21235;-84
2023/03/31 05:01:16;;;;;;;8.05;5.25;;;;;;;0.81;82.78;99648.78;1768417;81;21193;-84
2023/03/31 05:04:21;;;;;;;8.30;5.33;;;;;;;0.96;82.53;99648.81;1768050;81;21177;-83
2023/03/31 05:07:27;;;;;;;8.50;4.80;;;;;;;1.02;82.26;99647.78;1769233;81;21272;-83
2023/03/31 05:10:33;;;;;;;9.53;5.17;;;;;;;1.17;81.87;99638.02;1769607;81;21548;-82
2023/03/31 05:13:39;;;;;;;7.50;4.90;;;;;;;1.32;81.41;99640.75;1768064;81;21283;-82
2023/03/31 05:16:45;;;;;;;9.23;5.15;;;;;;;1.37;80.98;99635.81;1767288;81;21736;-83
2023/03/31 05:19:52;;;;;;;14.20;5.85;;;;;;;1.60;80.60;99639.19;1769250;81;21153;-82
2023/03/31 05:22:56;;;;;;;11.28;5.28;;;;;;;1.83;79.64;99643.00;1755803;81;21227;-83
2023/03/31 05:26:02;;;;;;;9.20;5.20;;;;;;;1.90;79.48;99638.29;1718968;82;21185;-82
2023/03/31 05:29:08;;;;;;;9.33;5.62;;;;;;;2.03;78.87;99639.39;1748448;81;21187;-83
2023/03/31 05:32:13;;;;;;;7.42;4.90;;;;;;;2.20;77.90;99628.41;1743724;81;21229;-84
2023/03/31 05:35:19;;;;;;;7.25;4.75;;;;;;;2.39;77.18;99632.98;1740554;81;21217;-84
2023/03/31 05:38:24;;;;;;;10.43;4.97;;;;;;;2.53;76.06;99637.46;1748042;81;21200;-84
2023/03/31 05:41:30;;;;;;;8.35;5.15;;;;;;;2.70;75.45;99627.81;1715864;82;21225;-84
2023/03/31 05:44:35;;;;;;;9.63;5.53;;;;;;;2.84;75.00;99628.37;1710976;82;21226;-84
2023/03/31 05:47:41;;;;;;;12.28;5.22;;;;;;;2.99;73.99;99633.69;1707229;84;21203;-83
2023/03/31 05:50:47;;;;;;;8.90;5.67;;;;;;;3.21;73.30;99635.22;1706760;84;21214;-83
2023/03/31 05:53:53;;;;;;;8.63;5.08;;;;;;;3.27;72.94;99631.42;1715583;82;21261;-83
2023/03/31 05:56:59;;;;;;;8.95;4.83;;;;;;;3.42;72.41;99625.55;1798390;79;21260;-83
2023/03/31 06:00:09;;;;;;;7.37;4.50;;;;;;;3.48;72.00;99628.53;1785149;79;21186;-83
2023/03/31 06:03:13;;;;;;;5.80;3.72;;;;;;;3.63;71.42;99634.81;1799320;79;21169;-83
2023/03/31 06:06:19;;;;;;;11.28;4.62;;;;;;;3.67;69.94;99633.02;1783463;79;21224;-83
2023/03/31 06:09:25;;;;;;;9.03;4.33;;;;;;;3.84;69.54;99628.14;1787486;79;21228;-83
2023/03/31 06:12:31;;;;;;;7.37;4.12;;;;;;;3.98;66.99;99634.06;1788598;79;21223;-83
2023/03/31 06:15:38;;;;;;;6.40;3.45;;;;;;;4.06;67.28;99627.41;1792090;79;21810;-83
2023/03/31 06:18:44;;;;;;;6.85;3.80;;;;;;;4.20;64.01;99628.25;1712242;82;21168;-83
2023/03/31 06:21:51;;;;;;;8.25;3.50;;;;;;;4.26;61.92;99627.63;1742018;82;21173;-84
2023/03/31 06:24:57;;;;;;;10.82;3.12;;;;;;;4.30;62.66;99626.83;1706069;83;21196;-83
2023/03/31 06:28:05;;;;;;;5.22;3.35;;;;;;;4.34;60.59;99631.78;1728145;80;21247;-84
2023/03/31 06:31:12;;;;;;;5.00;3.35;;;;;;;4.50;61.29;99622.12;1749363;80;22358;-83
2023/03/31 06:34:17;;;;;;;5.97;3.72;;;;;;;4.68;59.57;99624.84;1742877;82;21240;-83
2023/03/31 06:37:23;;;;;;;5.33;3.67;;;;;;;4.84;58.00;99632.59;1734901;82;21216;-84
2023/03/31 06:40:28;;;;;;;6.37;3.90;;;;;;;4.96;59.09;99626.94;1732645;82;21201;-83
2023/03/31 06:43:33;;;;;;;3.90;2.95;;;;;;;5.21;57.53;99634.23;1732508;82;21204;-83
2023/03/31 06:46:41;;;;;;;5.22;3.65;;;;;;;5.34;57.78;99629.77;1727431;82;21169;-84
2023/03/31 06:49:47;;;;;;;7.35;3.72;;;;;;;5.45;57.64;99627.28;1729896;82;21240;-84
2023/03/31 06:52:54;;;;;;;5.28;3.30;;;;;;;5.64;57.42;99626.55;1734781;82;21197;-84
2023/03/31 06:56:00;;;;;;;6.05;3.30;;;;;;;5.82;57.40;99625.63;1735057;82;21751;-83
2023/03/31 06:59:06;;;;;;;5.00;3.52;;;;;;;5.99;56.58;99619.80;1719762;83;21280;-84
2023/03/31 07:02:12;;;;;;;7.35;3.50;;;;;;;6.08;55.99;99620.18;1726321;82;21205;-84
2023/03/31 07:05:25;;;;;;;5.92;3.60;;;;;;;6.13;56.41;99626.81;1725862;82;21237;-84
2023/03/31 07:08:27;;;;;;;8.53;4.15;;;;;;;6.31;56.08;99623.14;1747082;82;21193;-84
2023/03/31 07:11:26;;;;;;;6.83;3.67;;;;;;;6.46;55.75;99624.19;1736347;82;21185;-84
2023/03/31 07:14:21;;;;;;;5.20;3.15;;;;;;;6.59;55.47;99618.28;1720831;82;21226;-84
2023/03/31 07:17:07;;;;;;;5.22;3.12;;;;;;;6.78;54.82;99619.31;1732564;82;21201;-84
2023/03/31 07:20:21;;;;;;;5.28;3.25;;;;;;;7.00;54.53;99621.00;1740832;81;21724;-84
2023/03/31 07:23:27;;;;;;;6.22;2.60;;;;;;;7.08;54.23;99614.21;1776654;79;21731;-84
2023/03/31 07:26:33;;;;;;;5.35;2.90;;;;;;;7.24;53.57;99615.55;1771062;79;21353;-84
2023/03/31 07:29:38;;;;;;;5.58;2.75;;;;;;;7.27;52.93;99615.21;1794327;79;21165;-84
2023/03/31 07:32:45;;;;;;;8.33;2.35;;;;;;;7.37;52.52;99625.39;1799688;79;21185;-84
2023/03/31 07:35:51;;;;;;;4.67;2.33;;;;;;;7.49;51.48;99620.97;1792917;79;21378;-86
2023/03/31 07:39:00;;;;;;;4.72;2.62;;;;;;;7.65;50.35;99623.64;1802945;79;21177;-86
2023/03/31 07:42:07;;;;;;;7.53;3.12;;;;;;;7.80;50.24;99627.33;1790627;79;21790;-86
2023/03/31 07:45:15;;;;;;;5.78;2.85;;;;;;;7.93;49.78;99618.10;1771558;81;21843;-86
2023/03/31 07:48:20;;;;;;;4.05;2.58;;;;;;;7.99;49.66;99626.07;1793006;79;21200;-86
2023/03/31 07:51:29;;;;;;;5.20;2.70;;;;;;;8.18;48.76;99620.71;1796058;79;21175;-86
2023/03/31 07:54:34;;;;;;;7.97;2.67;;;;;;;7.92;49.84;99616.41;1770827;79;21193;-86
2023/03/31 07:57:42;;;;;;;5.10;3.12;;;;;;;7.97;49.97;99614.52;1784075;79;21171;-86
2023/03/31 08:00:48;;;;;;;6.10;3.20;;;;;;;8.11;48.97;99623.83;1774517;79;21184;-86
2023/03/31 08:03:47;;;;;;;;;;;;;;;8.20;48.88;99618.16;1805799;79;21154;-86
2023/03/31 08:06:53;;;;;;;5.80;3.45;;;;;;;8.27;49.71;99616.92;1722137;82;20225;-86
2023/03/31 08:10:00;;;;;;;8.23;3.20;;;;;;;8.44;49.62;99613.12;1800390;79;21200;-86
2023/03/31 08:13:07;;;;;;;5.75;3.20;;;;;;;8.46;49.43;99610.20;1770543;79;21260;-87
2023/03/31 08:16:13;;;;;;;5.75;2.95;;;;;;;8.56;48.77;99615.42;1792039;79;21270;-87
2023/03/31 08:19:19;;;;;;;6.35;3.30;;;;;;;8.66;48.97;99613.34;1776591;79;21202;-87
2023/03/31 08:22:24;;;;;;;7.78;3.72;;;;;;;8.76;48.17;99608.48;1775352;80;21229;-87
2023/03/31 08:25:30;;;;;;;7.87;3.95;;;;;;;8.83;48.06;99614.05;1794060;80;21165;-87
2023/03/31 08:28:36;;;;;;;12.73;3.77;;;;;;;8.92;48.07;99619.26;1764875;80;21189;-87
2023/03/31 08:31:44;;;;;;;11.30;4.60;;;;;;;9.05;48.42;99616.45;1782143;80;21153;-87
2023/03/31 08:34:50;;;;;;;12.05;5.50;;;;;;;9.11;48.78;99619.27;1782422;80;21178;-87
2023/03/31 08:37:56;;;;;;;9.18;4.72;;;;;;;9.19;48.87;99622.46;1789355;80;21181;-87
2023/03/31 08:41:07;;;;;;;10.95;5.00;;;;;;;9.25;48.60;99623.59;1715969;83;21208;-88
2023/03/31 08:44:25;;;;;;;11.38;5.70;;;;;;;9.21;48.61;99620.37;1739772;82;21264;-87
2023/03/31 08:47:31;;;;;;;11.68;5.70;;;;;;;8.99;48.78;99623.48;1744435;82;21201;-88
2023/03/31 08:50:39;;;;;;;11.43;5.80;;;;;;;8.92;49.53;99613.80;1726890;82;21149;-87
2023/03/31 08:53:57;;;;;;;13.95;5.30;;;;;;;8.93;48.37;99622.31;1711106;84;21224;-87
2023/03/31 08:57:04;;;;;;;8.80;5.25;;;;;;;8.98;47.97;99628.58;1711010;84;21807;-87
2023/03/31 09:00:12;;;;;;;12.90;5.55;;;;;;;8.94;48.59;99625.40;1730220;82;21129;-87
2023/03/31 09:03:40;;;;;;;7.67;3.92;;;;;;;9.16;48.33;99630.48;1700404;83;21209;-87
2023/03/31 09:06:55;;;;;;;7.95;4.80;;;;;;;8.91;49.38;99631.72;1697716;81;21347;-88
2023/03/31 09:10:14;;;;;;;8.55;4.87;;;;;;;9.08;49.44;99636.52;1698887;83;21753;-86
2023/03/31 09:13:28;;;;;;;7.12;4.20;;;;;;;9.17;49.65;99629.96;1718502;83;21122;-86
2023/03/31 09:16:44;;;;;;;10.15;4.62;;;;;;;8.89;49.11;99619.64;1720257;81;21181;-86
2023/03/31 09:20:27;;;;;;;10.70;4.80;;;;;;;8.98;48.92;99615.47;1713323;81;21180;-87
2023/03/31 09:23:38;;;;;;;12.88;5.95;;;;;;;8.99;48.68;99608.97;1707634;80;21410;-87
2023/03/31 09:26:54;;;;;;;15.28;5.92;;;;;;;9.17;49.11;99606.77;1722792;79;21204;-87
2023/03/31 09:30:14;;;;;;;10.75;5.72;;;;;;;9.27;48.89;99611.97;1730660;83;21169;-86
2023/03/31 09:33:34;;;;;;;12.03;6.25;;;;;;;9.35;49.44;99618.72;1739948;82;21174;-86
2023/03/31 09:36:36;;;;;;;20.23;7.87;;;;;;;9.37;48.95;99611.21;1726256;81;21115;-88
2023/03/31 09:39:48;;;;;;;16.42;8.45;;;;;;;9.45;48.81;99615.20;1729455;82;21137;-87
2023/03/31 09:42:54;;;;;;;12.15;6.17;;;;;;;9.53;49.55;99608.30;1727221;80;21166;-86
2023/03/31 09:46:00;;;;;;;10.38;5.72;;;;;;;9.64;48.84;99605.63;1746044;81;21165;-87
2023/03/31 09:49:21;;;;;;;6.87;3.98;;;;;;;9.70;48.58;99600.80;1732006;82;21129;-87
2023/03/31 09:52:39;;;;;;;13.62;5.03;;;;;;;9.58;48.90;99600.92;1732244;82;21196;-86
2023/03/31 09:55:57;;;;;;;7.00;3.80;;;;;;;9.58;49.61;99595.45;1731752;82;21206;-87
2023/03/31 09:59:08;;;;;;;7.72;3.87;;;;;;;9.66;50.10;99599.47;1725996;82;21173;-87
2023/03/31 10:02:44;;;;;;;7.28;4.35;;;;;;;9.48;50.78;99598.47;1697722;82;21525;-87
2023/03/31 10:06:02;;;;;;;8.15;3.92;;;;;;;9.60;50.03;99594.77;1719884;82;21237;-87
2023/03/31 10:09:12;;;;;;;5.70;4.28;;;;;;;9.96;49.88;99596.20;1733228;82;21587;-87
2023/03/31 10:12:29;;;;;;;5.33;3.35;;;;;;;10.01;48.22;99592.91;1734270;82;21193;-88
2023/03/31 10:15:36;;;;;;;7.35;4.20;;;;;;;9.98;46.53;99592.78;1733519;82;21250;-88
2023/03/31 10:18:46;;;;;;;7.28;4.25;;;;;;;10.02;45.91;99581.81;1721453;82;21257;-88
2023/03/31 10:21:54;;;;;;;10.53;4.00;;;;;;;10.10;46.40;99578.95;1740718;81;21197;-86
2023/03/31 10:25:00;;;;;;;5.62;3.60;;;;;;;10.27;46.39;99572.78;1738407;81;21259;-88
2023/03/31 10:28:07;;;;;;;5.65;3.42;;;;;;;10.38;45.67;99576.89;1694155;83;21200;-87
2023/03/31 10:31:07;;;;;;;11.22;4.03;;;;;;;10.33;45.88;99561.59;1721697;81;21206;-88
2023/03/31 10:34:36;;;;;;;5.17;3.72;;;;;;;10.43;45.41;99564.33;1744749;82;21200;-88
2023/03/31 10:37:42;;;;;;;9.53;4.08;;;;;;;10.47;44.55;99554.71;1728046;83;21260;-85
2023/03/31 10:40:52;;;;;;;9.10;4.08;;;;;;;10.49;44.62;99550.41;1722620;82;21180;-85
2023/03/31 10:44:03;;;;;;;8.08;4.28;;;;;;;10.55;44.46;99545.55;1718989;83;21189;-86
2023/03/31 10:47:24;;;;;;;5.90;3.35;;;;;;;10.61;45.36;99542.02;1743397;82;21786;-85
2023/03/31 10:50:39;;;;;;;8.30;4.08;;;;;;;10.87;44.12;99540.56;1725066;82;21187;-85
2023/03/31 10:53:50;;;;;;;7.10;3.85;;;;;;;10.89;43.42;99539.86;1727814;82;21243;-85
2023/03/31 10:57:08;;;;;;;6.25;3.35;;;;;;;10.79;43.66;99532.00;1737363;82;21772;-85
2023/03/31 11:00:22;;;;;;;7.95;4.58;;;;;;;10.89;43.37;99532.50;1727759;83;21233;-85
2023/03/31 11:03:39;;;;;;;6.28;3.90;;;;;;;10.85;43.95;99527.09;1729449;82;21205;-85
2023/03/31 11:07:00;;;;;;;7.75;3.52;;;;;;;11.15;44.12;99529.15;1729523;83;21205;-85
2023/03/31 11:10:11;;;;;;;5.75;4.08;;;;;;;11.13;43.49;99527.11;1698212;83;21240;-85
2023/03/31 11:13:43;;;;;;;5.85;3.95;;;;;;;11.25;43.51;99520.58;1719243;83;21212;-85
2023/03/31 11:17:12;;;;;;;12.68;3.83;;;;;;;11.39;43.89;99515.52;1748027;82;21220;-85
2023/03/31 11:20:46;;;;;;;8.95;3.92;;;;;;;11.49;42.32;99518.73;1735948;82;21220;-84
2023/03/31 11:24:09;;;;;;;6.90;3.58;;;;;;;11.51;43.10;99511.67;1713558;83;21166;-84
2023/03/31 11:27:45;;;;;;;7.28;3.27;;;;;;;11.65;41.95;99503.86;1731884;83;21169;-84
2023/03/31 11:31:20;;;;;;;4.28;2.80;;;;;;;11.73;41.48;99497.37;1763993;81;21260;-84
2023/03/31 11:35:03;;;;;;;4.60;2.87;;;;;;;11.78;40.32;99497.60;1699782;82;21780;-85
2023/03/31 11:38:46;;;;;;;4.47;2.65;;;;;;;11.96;38.22;99496.56;1803086;79;21180;-84
2023/03/31 11:41:56;;;;;;;4.25;3.00;;;;;;;11.97;37.74;99487.28;1801171;79;21756;-85
2023/03/31 11:45:07;;;;;;;5.67;3.25;;;;;;;12.00;38.29;99486.03;1798981;79;21165;-85
2023/03/31 11:48:15;;;;;;;;;;;;;;;11.96;38.47;99486.12;1804025;79;21236;-84
2023/03/31 11:51:34;;;;;;;4.50;3.00;;;;;;;12.03;39.42;99470.53;1802877;79;20177;-85
2023/03/31 11:55:04;;;;;;;5.57;3.37;;;;;;;11.93;39.84;99469.55;1802184;78;21207;-85
2023/03/31 11:58:31;;;;;;;6.05;3.40;;;;;;;11.69;40.03;99474.17;1760521;81;21179;-85
2023/03/31 12:02:01;;;;;;;12.55;3.55;;;;;;;11.71;40.62;99471.53;1760520;81;21181;-85
2023/03/31 12:05:07;;;;;;;6.90;3.58;;;;;;;11.90;41.31;99470.48;1748870;79;21161;-84
2023/03/31 12:08:34;;;;;;;4.97;3.25;;;;;;;11.70;41.55;99461.63;1776372;79;21162;-84
2023/03/31 12:12:08;;;;;;;6.17;3.52;;;;;;;11.70;42.07;99469.84;1773088;79;21770;-84
2023/03/31 12:15:40;;;;;;;5.42;3.42;;;;;;;11.80;41.25;99473.58;1772410;79;21192;-84
2023/03/31 12:19:07;;;;;;;10.90;3.35;;;;;;;11.60;41.44;99461.69;1777514;79;21165;-85
2023/03/31 12:22:33;;;;;;;5.50;3.17;;;;;;;11.39;41.86;99463.50;1800615;79;21190;-85
2023/03/31 12:26:15;;;;;;;4.70;3.25;;;;;;;11.33;41.50;99457.44;1800740;79;21200;-85
2023/03/31 12:29:39;;;;;;;8.55;3.40;;;;;;;11.20;40.98;99453.27;1789440;79;21183;-85
2023/03/31 12:32:53;;;;;;;5.12;3.27;;;;;;;11.18;40.72;99452.61;1770268;81;21194;-85
2023/03/31 12:36:04;;;;;;;5.10;3.15;;;;;;;11.24;40.60;99439.48;1770389;80;21819;-85
2023/03/31 12:39:47;;;;;;;5.37;3.52;;;;;;;11.16;40.54;99435.56;1772125;79;21201;-85
2023/03/31 12:43:06;;;;;;;8.10;3.90;;;;;;;11.20;40.35;99435.48;1800427;79;21791;-85
2023/03/31 12:46:51;;;;;;;9.60;4.00;;;;;;;11.21;40.47;99435.27;1800543;79;21195;-85
2023/03/31 12:50:12;;;;;;;8.38;3.52;;;;;;;11.11;40.23;99429.33;1791360;79;21197;-85
2023/03/31 12:53:34;;;;;;;11.33;4.35;;;;;;;10.96;41.68;99429.44;1770465;79;21212;-85
2023/03/31 12:57:15;;;;;;;8.70;4.25;;;;;;;10.96;41.77;99419.87;1768811;81;21208;-85
2023/03/31 13:00:32;;;;;;;13.35;3.90;;;;;;;11.17;42.35;99418.92;1769718;79;21789;-85
2023/03/31 13:03:58;;;;;;;13.13;4.25;;;;;;;11.28;41.47;99413.40;1783704;79;21161;-85
2023/03/31 13:07:04;;;;;;;8.83;3.75;;;;;;;11.34;42.33;99411.23;1770957;81;21736;-85
2023/03/31 13:10:23;;;;;;;11.05;3.87;;;;;;;11.40;42.06;99407.68;1769127;81;21748;-85
2023/03/31 13:13:29;;;;;;;6.60;4.03;;;;;;;11.49;41.98;99407.83;1770356;81;21763;-85
2023/03/31 13:16:38;;;;;;;5.97;3.70;;;;;;;11.40;41.57;99402.20;1768523;81;21743;-85
2023/03/31 13:19:46;;;;;;;11.53;4.10;;;;;;;11.35;41.73;99399.77;1770608;79;21212;-85
2023/03/31 13:22:56;;;;;;;8.23;4.53;;;;;;;11.31;40.78;99395.73;1770516;81;21161;-85
2023/03/31 13:26:05;;;;;;;6.97;4.12;;;;;;;11.31;40.99;99399.84;1773243;79;21183;-85
2023/03/31 13:29:25;;;;;;;9.13;4.85;;;;;;;11.28;40.83;99386.55;1783866;79;21769;-85
2023/03/31 13:32:31;;;;;;;8.50;4.53;;;;;;;11.22;41.20;99393.69;1783744;80;21182;-85
2023/03/31 13:35:38;;;;;;;8.08;4.78;;;;;;;11.17;41.74;99379.23;1783856;80;21197;-85
2023/03/31 13:39:11;;;;;;;8.98;4.80;;;;;;;11.36;41.90;99380.91;1783895;80;21241;-84
2023/03/31 13:42:58;;;;;;;7.50;4.60;;;;;;;11.33;42.00;99371.20;1784234;80;21188;-85
2023/03/31 13:46:42;;;;;;;9.45;4.20;;;;;;;11.22;43.05;99370.42;1782856;80;21230;-85
2023/03/31 13:50:18;;;;;;;9.48;4.92;;;;;;;11.34;42.12;99363.33;1784035;80;21183;-85
2023/03/31 13:54:09;;;;;;;10.68;4.45;;;;;;;11.26;43.21;99363.50;1784313;80;21198;-85
2023/03/31 13:57:52;;;;;;;7.78;4.65;;;;;;;11.38;43.17;99360.47;1783229;80;21741;-85
2023/03/31 14:01:12;;;;;;;7.20;4.15;;;;;;;11.22;43.66;99351.27;1783127;80;21261;-85
2023/03/31 14:04:35;;;;;;;10.00;4.17;;;;;;;11.26;43.85;99352.55;1783856;80;21167;-85
2023/03/31 14:07:56;;;;;;;8.15;4.42;;;;;;;11.27;43.80;99343.28;1783798;80;21729;-85
2023/03/31 14:11:23;;;;;;;8.83;3.60;;;;;;;11.13;43.59;99343.74;1783167;80;21761;-85
2023/03/31 14:14:30;;;;;;;10.58;4.10;;;;;;;10.99;44.16;99350.20;1766245;79;21164;-85
2023/03/31 14:17:46;;;;;;;5.62;3.50;;;;;;;10.91;44.66;99342.14;1761448;80;21220;-85
2023/03/31 14:21:12;;;;;;;12.65;4.00;;;;;;;10.97;44.92;99335.36;1783313;80;21279;-84
2023/03/31 14:24:44;;;;;;;16.55;4.53;;;;;;;11.02;45.14;99333.38;1791730;78;21200;-84
2023/03/31 14:28:34;;;;;;;8.00;4.15;;;;;;;10.79;45.44;99333.67;1776970;78;21403;-84
2023/03/31 14:31:46;;;;;;;9.43;3.20;;;;;;;10.77;45.62;99334.38;1812115;78;21255;-85
2023/03/31 14:35:09;;;;;;;8.75;3.30;;;;;;;10.71;45.80;99328.36;1808208;78;21415;-85
2023/03/31 14:38:19;;;;;;;7.30;2.90;;;;;;;10.60;45.97;99321.56;1741947;82;21209;-85
2023/03/31 14:41:30;;;;;;;11.48;3.17;;;;;;;10.53;46.12;99314.36;1773301;81;21276;-84
2023/03/31 14:44:35;;;;;;;6.67;3.17;;;;;;;10.47;46.19;99319.58;1741948;81;21308;-85
2023/03/31 14:47:40;;;;;;;9.70;2.90;;;;;;;10.48;46.17;99315.80;1771635;81;21283;-85
2023/03/31 14:50:45;;;;;;;6.72;2.67;;;;;;;10.53;46.08;99312.98;1742069;82;21190;-85
2023/03/31 14:53:50;;;;;;;5.25;2.83;;;;;;;10.55;45.45;99313.13;1773015;77;21174;-85
2023/03/31 14:57:03;;;;;;;7.37;2.60;;;;;;;10.66;45.09;99315.28;1742452;82;21245;-85
2023/03/31 15:00:11;;;;;;;7.22;2.60;;;;;;;10.63;44.74;99313.47;1773173;81;21303;-85
2023/03/31 15:03:20;;;;;;;11.45;3.02;;;;;;;10.74;44.47;99323.34;1741739;81;21777;-85
2023/03/31 15:06:26;;;;;;;7.00;2.72;;;;;;;10.38;44.39;99308.47;1771662;78;21177;-85
2023/03/31 15:09:37;;;;;;;11.63;3.30;;;;;;;10.33;44.21;99315.59;1742527;82;21240;-85
2023/03/31 15:12:43;;;;;;;16.62;2.40;;;;;;;10.27;43.62;99313.66;1771714;78;21202;-85